메인 페이지
METAR-TAF:

METAR-TAF

공항 :

부쿠레슈티, 루마니아

헨리 코안더 국제공항

위도: 44-33N, 경도: 026-06E, 고도: 95m

현재 날씨관측

예보는 21분 전, 05:30시(UTC)에 발표되었습니다.
동북동12kt
온도 -2°C
습도 93%
기압 1022 hPa
시정: 5000m
고도 2500ft 상공 흐림
약한눈, 박무

METAR: LROP 200530Z 06012KT 5000 -SN BR OVC025 M02/M03 Q1022 R88/420195 NOSIG

시각: 07:51 (05:51 UTC)

예보

예보는 51분 전, 05:00시(UTC)에 발표되었습니다.
예보 대상 시간: 20일 06시부터 21일 06시까지 (UTC)
동북동14kt
시정: 7000m
고도 1000ft 상공 구름 보통
고도 2500ft 상공 흐림
약한눈
일시적
20일 06시부터 20일 18시까지 (UTC)
시정: 3000m
고도 1000ft 상공 구름 많음
고도 2500ft 상공 흐림
약한눈, 박무
전환 중
20일 18시부터 20일 20시까지 (UTC)
시정: 5000m
고도 1000ft 상공 구름 많음
고도 2500ft 상공 흐림
약한눈, 박무
확률 40% :
일시적
20일 21시부터 21일 04시까지 (UTC)
시정: 3000m
고도 500ft 상공 구름 많음
고도 2000ft 상공 흐림
약한눈, 박무

TAF: LROP 200500Z 2006/2106 06014KT 7000 -SN SCT010 OVC025 TEMPO 2006/2018 3000 -SN BR BKN010 OVC025 BECMG 2018/2020 5000 -SN BR BKN010 OVC025 PROB40 TEMPO 2021/2104 3000 -SN BR BKN005 OVC020

4,000개 이상의 공항 관측 자료 및 예보 (METAR 및 TAF 보고).

지도상에서 검색 가능한 기상관측소가 노란 점과 빨간 점으로 표시되어 있습니다.

기상관측소 명을 보려면 표시 위로 마우스를 이동하세요.

날씨 관측과 예보를 보려면 클릭하세요.

지도 변경 : 확대하려면 엑스 표시가 있는 녹색 버튼, 축소하려면 빼기 표시가 있는 녹색 버튼, 다음 페이지의 지도를 보려면 녹색 화살표를 클릭하세요.


METAR-TAF: